createdAt,value
2018-01-26T16:48:31.701Z,1015.36
2018-01-26T16:52:37.676Z,1015.44
2018-01-26T16:53:37.605Z,1015.42
2018-01-26T16:55:30.472Z,1015.51
2018-01-26T16:56:30.426Z,1015.53
2018-01-26T16:58:23.479Z,1015.59
2018-01-26T16:59:23.258Z,1015.59
2018-01-26T17:01:16.140Z,1015.65
2018-01-26T17:02:16.112Z,1015.73
2018-01-26T17:04:08.994Z,1015.71
2018-01-26T17:05:08.946Z,1015.76
2018-01-26T17:07:01.818Z,1015.85
2018-01-26T17:08:01.786Z,1015.82
2018-01-26T17:09:54.660Z,1015.88
2018-01-26T17:10:54.614Z,1015.87
2018-01-26T17:12:47.478Z,1015.90
2018-01-26T17:13:47.461Z,1015.88
2018-01-26T17:15:40.322Z,1015.91
2018-01-26T17:16:40.269Z,1015.94
2018-01-26T17:18:33.153Z,1015.92
2018-01-26T17:19:33.107Z,1015.93
2018-01-26T17:21:25.959Z,1015.94
2018-01-26T17:22:25.924Z,1015.98
2018-01-26T17:24:18.794Z,1015.98
2018-01-26T17:25:18.746Z,1016.00
2018-01-26T17:27:11.597Z,1016.07
2018-01-26T17:28:11.569Z,1016.07
2018-01-26T17:30:04.455Z,1016.11
2018-01-26T17:31:04.394Z,1016.14
2018-01-26T17:32:57.259Z,1016.18
2018-01-26T17:33:57.226Z,1016.27
2018-01-26T17:35:50.106Z,1016.25
2018-01-26T17:36:50.053Z,1016.25
2018-01-26T17:38:43.001Z,1016.26
2018-01-26T17:39:42.882Z,1016.26
2018-01-26T17:41:35.732Z,1016.21
2018-01-26T17:42:35.701Z,1016.24
2018-01-26T17:44:28.583Z,1016.28
2018-01-26T17:45:28.540Z,1016.30
2018-01-26T17:47:21.387Z,1016.36
2018-01-26T17:48:21.357Z,1016.36
2018-01-26T17:50:14.234Z,1016.32
2018-01-26T17:51:14.183Z,1016.32
2018-01-26T17:53:07.038Z,1016.39
2018-01-26T17:54:07.007Z,1016.42
2018-01-26T17:55:59.886Z,1016.42
2018-01-26T17:56:59.835Z,1016.46
2018-01-26T17:58:52.705Z,1016.50
2018-01-26T17:59:52.662Z,1016.49
2018-01-26T18:01:45.514Z,1016.48
2018-01-26T18:02:45.485Z,1016.52
2018-01-26T18:04:38.364Z,1016.52
2018-01-26T18:05:38.314Z,1016.53
2018-01-26T18:07:31.173Z,1016.57
2018-01-26T18:08:31.177Z,1016.58
2018-01-26T18:10:24.018Z,1016.61
2018-01-26T18:11:23.967Z,1016.62
2018-01-26T18:13:16.821Z,1016.62
2018-01-26T18:14:16.794Z,1016.65
2018-01-26T18:16:09.677Z,1016.65
2018-01-26T18:17:09.624Z,1016.67
2018-01-26T18:19:02.507Z,1016.66
2018-01-26T18:20:02.453Z,1016.68
2018-01-26T18:21:55.302Z,1016.64
2018-01-26T18:22:55.281Z,1016.65
2018-01-26T18:24:48.152Z,1016.71
2018-01-26T18:25:48.103Z,1016.74
2018-01-26T18:27:40.983Z,1016.76
2018-01-26T18:28:40.979Z,1016.79
2018-01-26T18:30:33.840Z,1016.81
2018-01-26T18:31:33.793Z,1016.84
2018-01-26T18:33:26.652Z,1016.88
2018-01-26T18:34:26.630Z,1016.89
2018-01-26T18:36:19.510Z,1016.95
2018-01-26T18:37:19.461Z,1016.97
2018-01-26T18:39:12.341Z,1016.94
2018-01-26T18:40:12.294Z,1016.97
2018-01-26T18:42:05.165Z,1016.94
2018-01-26T18:43:05.140Z,1016.97
2018-01-26T18:44:58.012Z,1016.99
2018-01-26T18:45:57.960Z,1016.97
2018-01-26T18:47:50.835Z,1017.02
2018-01-26T18:48:50.798Z,1017.02
2018-01-26T18:50:43.758Z,1017.11
2018-01-26T18:51:43.712Z,1017.13
2018-01-26T18:53:36.575Z,1017.13
2018-01-26T18:54:36.547Z,1017.20
2018-01-26T18:56:29.427Z,1017.20
2018-01-26T18:57:29.387Z,1017.22
2018-01-26T18:59:22.266Z,1017.23
2018-01-26T19:00:22.216Z,1017.30
2018-01-26T19:02:15.102Z,1017.32
2018-01-26T19:03:15.071Z,1017.32
2018-01-26T19:07:31.248Z,1017.39
2018-01-26T19:08:31.192Z,1017.38
2018-01-26T19:10:24.075Z,1017.41
2018-01-26T19:11:24.033Z,1017.40
2018-01-26T19:13:16.896Z,1017.44
2018-01-26T19:14:16.867Z,1017.52
2018-01-26T19:16:09.777Z,1017.49
2018-01-26T19:17:09.708Z,1017.52
2018-01-26T19:19:02.566Z,1017.50
2018-01-26T19:20:02.539Z,1017.49
2018-01-26T19:21:55.931Z,1017.55
2018-01-26T19:22:55.871Z,1017.55
2018-01-26T19:24:50.268Z,1017.58
2018-01-26T19:25:50.217Z,1017.59
2018-01-26T19:27:43.103Z,1017.58
2018-01-26T19:28:43.075Z,1017.63
2018-01-26T19:30:35.951Z,1017.67
2018-01-26T19:31:35.916Z,1017.66
2018-01-26T19:33:28.776Z,1017.68
2018-01-26T19:34:28.740Z,1017.70
2018-01-26T19:36:21.606Z,1017.71
2018-01-26T19:37:21.569Z,1017.73
2018-01-26T19:39:14.444Z,1017.75
2018-01-26T19:40:14.398Z,1017.81
2018-01-26T19:42:07.283Z,1017.83
2018-01-26T19:43:07.236Z,1017.86
2018-01-26T19:45:00.111Z,1017.89
2018-01-26T19:46:00.048Z,1017.92
2018-01-26T19:47:52.916Z,1017.93
2018-01-26T19:48:52.884Z,1017.95
2018-01-26T19:50:45.763Z,1017.93
2018-01-26T19:51:45.710Z,1017.91
2018-01-26T19:53:38.574Z,1017.92
2018-01-26T19:54:38.549Z,1017.94
2018-01-26T19:56:31.433Z,1017.93
2018-01-26T19:57:31.368Z,1017.96
2018-01-26T19:59:24.225Z,1017.93
2018-01-26T20:00:24.195Z,1017.92
2018-01-26T20:02:17.088Z,1017.93
2018-01-26T20:03:17.041Z,1017.99
2018-01-26T20:05:09.919Z,1017.97
2018-01-26T20:06:09.874Z,1018.01
2018-01-26T20:08:02.728Z,1018.03
2018-01-26T20:09:02.699Z,1018.05
2018-01-26T20:10:55.581Z,1018.02
2018-01-26T20:11:55.531Z,1018.08
2018-01-26T20:13:48.906Z,1018.08
2018-01-26T20:14:48.876Z,1018.13
2018-01-26T20:16:41.760Z,1018.14
2018-01-26T20:17:41.704Z,1018.14
2018-01-26T20:19:34.562Z,1018.13
2018-01-26T20:20:34.528Z,1018.13
2018-01-26T20:22:27.410Z,1018.15
2018-01-26T20:23:27.360Z,1018.18
2018-01-26T20:25:21.236Z,1018.22
2018-01-26T20:26:21.191Z,1018.24
2018-01-26T20:28:14.060Z,1018.26
2018-01-26T20:29:14.030Z,1018.32
2018-01-26T20:31:06.906Z,1018.33
2018-01-26T20:32:06.856Z,1018.35
2018-01-26T20:33:59.713Z,1018.44
2018-01-26T20:34:59.683Z,1018.44
2018-01-26T20:36:52.566Z,1018.42
2018-01-26T20:37:52.517Z,1018.47
2018-01-26T20:39:45.382Z,1018.51
2018-01-26T20:40:45.353Z,1018.48
2018-01-26T20:42:38.249Z,1018.47
2018-01-26T20:43:38.193Z,1018.47
2018-01-26T20:45:31.077Z,1018.49
2018-01-26T20:46:31.029Z,1018.50
2018-01-26T20:48:23.896Z,1018.53
2018-01-26T20:49:23.867Z,1018.53
2018-01-26T20:51:16.749Z,1018.55
2018-01-26T20:52:16.703Z,1018.55
2018-01-26T20:54:09.575Z,1018.60
2018-01-26T20:55:09.544Z,1018.62
2018-01-26T20:57:02.433Z,1018.61
2018-01-26T20:58:02.382Z,1018.65
2018-01-26T20:59:55.242Z,1018.69
2018-01-26T21:00:55.214Z,1018.72
2018-01-26T21:02:48.119Z,1018.77
2018-01-26T21:03:48.077Z,1018.76
2018-01-26T21:05:40.968Z,1018.77
2018-01-26T21:06:40.910Z,1018.77
2018-01-26T21:08:33.785Z,1018.82
2018-01-26T21:09:33.756Z,1018.84
2018-01-26T21:11:26.645Z,1018.83
2018-01-26T21:12:26.610Z,1018.87
2018-01-26T21:14:19.474Z,1018.94
2018-01-26T21:15:19.430Z,1018.95
2018-01-26T21:17:12.313Z,1019.01
2018-01-26T21:18:12.271Z,1019.00
2018-01-26T21:20:05.153Z,1019.03
2018-01-26T21:21:05.119Z,1019.09
2018-01-26T21:22:58.021Z,1019.07
2018-01-26T21:23:57.945Z,1019.08
2018-01-26T21:25:50.853Z,1019.11
2018-01-26T21:26:50.795Z,1019.09
2018-01-26T21:28:43.736Z,1019.07
2018-01-26T21:29:43.627Z,1019.11
2018-01-26T21:31:36.535Z,1019.18
2018-01-26T21:32:36.488Z,1019.15
2018-01-26T21:34:29.367Z,1019.14
2018-01-26T21:35:29.320Z,1019.14
2018-01-26T21:37:22.203Z,1019.20
2018-01-26T21:38:22.166Z,1019.17
2018-01-26T21:40:15.070Z,1019.19
2018-01-26T21:41:15.026Z,1019.20
2018-01-26T21:43:07.918Z,1019.22
2018-01-26T21:44:07.876Z,1019.19
2018-01-26T21:46:01.283Z,1019.22
2018-01-26T21:47:01.243Z,1019.23
2018-01-26T21:48:54.107Z,1019.35
2018-01-26T21:49:54.105Z,1019.39
2018-01-26T21:51:46.969Z,1019.37
2018-01-26T21:52:46.915Z,1019.38
2018-01-26T21:54:39.779Z,1019.40
2018-01-26T21:55:39.753Z,1019.42
2018-01-26T21:57:32.631Z,1019.41
2018-01-26T21:58:32.614Z,1019.41
2018-01-26T22:00:25.462Z,1019.38
2018-01-26T22:01:25.426Z,1019.44
2018-01-26T22:03:18.302Z,1019.48
2018-01-26T22:04:18.252Z,1019.48
2018-01-26T22:06:11.135Z,1019.51
2018-01-26T22:07:11.089Z,1019.54
2018-01-26T22:09:03.949Z,1019.53
2018-01-26T22:10:03.919Z,1019.51
2018-01-26T22:11:56.803Z,1019.56
2018-01-26T22:12:56.760Z,1019.54
2018-01-26T22:14:49.622Z,1019.55
2018-01-26T22:15:49.592Z,1019.55
2018-01-26T22:17:42.479Z,1019.54
2018-01-26T22:18:42.431Z,1019.57
2018-01-26T22:20:35.285Z,1019.60
2018-01-26T22:21:35.261Z,1019.58
2018-01-26T22:23:28.168Z,1019.61
2018-01-26T22:24:28.117Z,1019.55
2018-01-26T22:26:21.001Z,1019.57
2018-01-26T22:27:20.954Z,1019.57
2018-01-26T22:29:13.818Z,1019.58
2018-01-26T22:30:13.793Z,1019.56
2018-01-26T22:32:06.676Z,1019.53
2018-01-26T22:33:06.628Z,1019.49
2018-01-26T22:34:59.492Z,1019.53
2018-01-26T22:35:59.456Z,1019.51
2018-01-26T22:37:52.342Z,1019.56
2018-01-26T22:38:52.291Z,1019.56
2018-01-26T22:40:46.144Z,1019.67
2018-01-26T22:41:46.116Z,1019.63
2018-01-26T22:43:39.002Z,1019.67
2018-01-26T22:44:38.949Z,1019.72
2018-01-26T22:46:31.833Z,1019.77
2018-01-26T22:47:31.785Z,1019.77
2018-01-26T22:49:24.660Z,1019.80
2018-01-26T22:50:24.637Z,1019.78
2018-01-26T22:52:17.522Z,1019.81
2018-01-26T22:53:17.477Z,1019.82
2018-01-26T22:55:10.337Z,1019.82
2018-01-26T22:56:10.311Z,1019.85
2018-01-26T22:58:03.190Z,1019.89
2018-01-26T22:59:03.142Z,1019.93
2018-01-26T23:00:56.000Z,1019.91
2018-01-26T23:01:55.978Z,1019.98
2018-01-26T23:03:48.853Z,1020.01
2018-01-26T23:04:48.804Z,1020.05
2018-01-26T23:06:42.187Z,1020.13
2018-01-26T23:07:42.140Z,1020.15
2018-01-26T23:09:34.997Z,1020.18
2018-01-26T23:10:34.971Z,1020.21
2018-01-26T23:12:27.850Z,1020.21
2018-01-26T23:13:27.816Z,1020.24
2018-01-26T23:15:20.679Z,1020.29
2018-01-26T23:16:20.647Z,1020.31
2018-01-26T23:18:13.534Z,1020.32
2018-01-26T23:19:13.484Z,1020.31
2018-01-26T23:21:06.357Z,1020.25
2018-01-26T23:22:06.324Z,1020.29
2018-01-26T23:23:59.203Z,1020.28
2018-01-26T23:24:59.159Z,1020.28
2018-01-26T23:26:52.049Z,1020.26
2018-01-26T23:27:52.001Z,1020.26
2018-01-26T23:29:44.876Z,1020.29
2018-01-26T23:30:44.852Z,1020.26
2018-01-26T23:32:37.733Z,1020.28
2018-01-26T23:33:37.681Z,1020.26
2018-01-26T23:35:30.545Z,1020.26
2018-01-26T23:36:30.517Z,1020.28
2018-01-26T23:38:23.393Z,1020.26
2018-01-26T23:39:23.345Z,1020.26
2018-01-26T23:41:16.207Z,1020.27
2018-01-26T23:42:16.186Z,1020.28
2018-01-26T23:44:09.066Z,1020.27
2018-01-26T23:45:09.018Z,1020.27
2018-01-26T23:47:01.921Z,1020.25
2018-01-26T23:48:01.874Z,1020.32
2018-01-26T23:49:54.738Z,1020.37
2018-01-26T23:50:54.709Z,1020.36
2018-01-26T23:52:47.582Z,1020.39
2018-01-26T23:53:47.535Z,1020.38
2018-01-26T23:55:40.901Z,1020.32
2018-01-26T23:56:40.876Z,1020.35
2018-01-26T23:58:33.752Z,1020.32
2018-01-26T23:59:33.703Z,1020.33
